sensor_id;sensor_type;location;lat;lon;timestamp;pressure;altitude;pressure_sealevel;temperature;humidity
68107;BME280;54892;47.488;19.026;2022-10-03T00:01:56;99922.28;;;13.57;78.97
68107;BME280;54892;47.488;19.026;2022-10-03T00:05:11;99930.97;;;13.63;78.62
68107;BME280;54892;47.488;19.026;2022-10-03T00:08:32;99931.84;;;13.53;79.07
68107;BME280;54892;47.488;19.026;2022-10-03T00:11:45;99936.41;;;13.42;79.39
68107;BME280;54892;47.488;19.026;2022-10-03T00:15:00;99943.31;;;13.43;79.68
68107;BME280;54892;47.488;19.026;2022-10-03T00:18:15;99941.72;;;13.42;79.75
68107;BME280;54892;47.488;19.026;2022-10-03T00:21:24;99947.56;;;13.39;79.76
68107;BME280;54892;47.488;19.026;2022-10-03T00:24:40;99946.75;;;13.38;80.03
68107;BME280;54892;47.488;19.026;2022-10-03T00:27:52;99943.91;;;13.30;80.26
68107;BME280;54892;47.488;19.026;2022-10-03T00:31:08;99947.03;;;13.37;79.96
68107;BME280;54892;47.488;19.026;2022-10-03T00:34:20;99945.94;;;13.48;79.19
68107;BME280;54892;47.488;19.026;2022-10-03T00:37:30;99945.47;;;13.31;79.56
68107;BME280;54892;47.488;19.026;2022-10-03T00:40:49;99950.03;;;13.25;79.78
68107;BME280;54892;47.488;19.026;2022-10-03T00:44:27;99949.22;;;13.24;79.56
68107;BME280;54892;47.488;19.026;2022-10-03T00:47:54;99940.81;;;13.12;80.26
68107;BME280;54892;47.488;19.026;2022-10-03T00:51:11;99938.41;;;13.16;79.80
68107;BME280;54892;47.488;19.026;2022-10-03T00:54:46;99951.94;;;13.14;80.13
68107;BME280;54892;47.488;19.026;2022-10-03T00:58:05;99955.66;;;13.13;79.99
68107;BME280;54892;47.488;19.026;2022-10-03T01:01:27;99936.09;;;13.04;80.54
68107;BME280;54892;47.488;19.026;2022-10-03T01:04:43;99929.69;;;13.10;80.22
68107;BME280;54892;47.488;19.026;2022-10-03T01:11:38;99945.66;;;13.00;80.76
68107;BME280;54892;47.488;19.026;2022-10-03T01:15:04;99934.88;;;12.81;81.54
68107;BME280;54892;47.488;19.026;2022-10-03T01:18:20;99936.62;;;13.01;80.79
68107;BME280;54892;47.488;19.026;2022-10-03T01:21:34;99934.06;;;12.85;80.86
68107;BME280;54892;47.488;19.026;2022-10-03T01:24:50;99939.09;;;12.82;81.19
68107;BME280;54892;47.488;19.026;2022-10-03T01:27:59;99942.72;;;13.01;80.11
68107;BME280;54892;47.488;19.026;2022-10-03T01:31:29;99939.59;;;12.94;80.62
68107;BME280;54892;47.488;19.026;2022-10-03T01:34:41;99935.81;;;13.05;79.80
68107;BME280;54892;47.488;19.026;2022-10-03T01:37:53;99947.22;;;13.01;79.88
68107;BME280;54892;47.488;19.026;2022-10-03T01:41:04;99940.69;;;12.83;80.50
68107;BME280;54892;47.488;19.026;2022-10-03T01:44:12;99940.19;;;12.75;80.81
68107;BME280;54892;47.488;19.026;2022-10-03T01:47:23;99944.12;;;12.78;80.66
68107;BME280;54892;47.488;19.026;2022-10-03T01:50:34;99943.13;;;12.63;81.03
68107;BME280;54892;47.488;19.026;2022-10-03T01:53:47;99947.84;;;12.82;80.45
68107;BME280;54892;47.488;19.026;2022-10-03T01:56:58;99946.28;;;12.71;80.81
68107;BME280;54892;47.488;19.026;2022-10-03T02:00:04;99943.09;;;12.74;80.61
68107;BME280;54892;47.488;19.026;2022-10-03T02:03:15;99939.13;;;12.76;80.07
68107;BME280;54892;47.488;19.026;2022-10-03T02:06:28;99943.38;;;12.72;80.30
68107;BME280;54892;47.488;19.026;2022-10-03T02:09:40;99952.06;;;12.88;79.47
68107;BME280;54892;47.488;19.026;2022-10-03T02:12:52;99953.06;;;12.98;79.06
68107;BME280;54892;47.488;19.026;2022-10-03T02:16:04;99948.94;;;12.71;80.21
68107;BME280;54892;47.488;19.026;2022-10-03T02:19:20;99960.31;;;12.71;80.12
68107;BME280;54892;47.488;19.026;2022-10-03T02:22:31;99961.94;;;12.62;80.70
68107;BME280;54892;47.488;19.026;2022-10-03T02:25:50;99961.16;;;12.56;80.79
68107;BME280;54892;47.488;19.026;2022-10-03T02:29:22;99968.00;;;12.62;80.56
68107;BME280;54892;47.488;19.026;2022-10-03T02:32:45;99969.03;;;12.82;79.56
68107;BME280;54892;47.488;19.026;2022-10-03T02:36:27;99985.53;;;12.58;80.35
68107;BME280;54892;47.488;19.026;2022-10-03T02:39:58;99995.03;;;12.64;80.27
68107;BME280;54892;47.488;19.026;2022-10-03T02:47:06;99996.09;;;12.63;80.50
68107;BME280;54892;47.488;19.026;2022-10-03T02:54:28;99997.38;;;12.71;80.12
68107;BME280;54892;47.488;19.026;2022-10-03T02:58:00;99992.38;;;12.70;80.26
68107;BME280;54892;47.488;19.026;2022-10-03T03:01:26;99998.75;;;12.58;80.22
68107;BME280;54892;47.488;19.026;2022-10-03T03:05:03;99994.53;;;12.47;80.53
68107;BME280;54892;47.488;19.026;2022-10-03T03:12:18;99991.63;;;12.48;80.82
68107;BME280;54892;47.488;19.026;2022-10-03T03:15:45;99994.53;;;12.52;80.03
68107;BME280;54892;47.488;19.026;2022-10-03T03:19:13;99989.50;;;12.51;80.19
68107;BME280;54892;47.488;19.026;2022-10-03T03:22:30;99999.28;;;12.60;79.75
68107;BME280;54892;47.488;19.026;2022-10-03T03:25:58;99993.75;;;12.52;79.56
68107;BME280;54892;47.488;19.026;2022-10-03T03:29:15;99999.31;;;12.45;79.94
68107;BME280;54892;47.488;19.026;2022-10-03T03:32:31;100000.37;;;12.44;79.67
68107;BME280;54892;47.488;19.026;2022-10-03T03:35:48;100012.53;;;12.50;79.66
68107;BME280;54892;47.488;19.026;2022-10-03T03:39:02;100003.81;;;12.39;79.85
68107;BME280;54892;47.488;19.026;2022-10-03T03:45:54;100007.47;;;12.54;79.30
68107;BME280;54892;47.488;19.026;2022-10-03T03:49:17;100015.69;;;12.47;79.68
68107;BME280;54892;47.488;19.026;2022-10-03T03:52:38;100005.91;;;12.42;79.73
68107;BME280;54892;47.488;19.026;2022-10-03T03:55:58;100010.94;;;12.49;79.53
68107;BME280;54892;47.488;19.026;2022-10-03T03:59:16;100009.34;;;12.48;79.29
68107;BME280;54892;47.488;19.026;2022-10-03T04:02:41;100014.94;;;12.52;79.22
68107;BME280;54892;47.488;19.026;2022-10-03T04:06:09;100015.47;;;12.33;80.05
68107;BME280;54892;47.488;19.026;2022-10-03T04:12:54;100019.44;;;12.41;80.14
68107;BME280;54892;47.488;19.026;2022-10-03T04:16:20;100014.38;;;12.39;79.84
68107;BME280;54892;47.488;19.026;2022-10-03T04:19:52;100017.84;;;12.34;79.98
68107;BME280;54892;47.488;19.026;2022-10-03T04:23:14;100022.88;;;12.26;79.92
68107;BME280;54892;47.488;19.026;2022-10-03T04:26:35;100023.66;;;12.37;79.72
68107;BME280;54892;47.488;19.026;2022-10-03T04:29:45;100022.34;;;12.29;79.90
68107;BME280;54892;47.488;19.026;2022-10-03T04:33:07;100027.34;;;12.46;79.10
68107;BME280;54892;47.488;19.026;2022-10-03T04:39:59;100041.66;;;12.34;79.25
68107;BME280;54892;47.488;19.026;2022-10-03T04:43:12;100034.28;;;12.26;79.22
68107;BME280;54892;47.488;19.026;2022-10-03T04:46:23;100048.53;;;12.30;79.49
68107;BME280;54892;47.488;19.026;2022-10-03T04:49:32;100036.66;;;12.33;78.70
68107;BME280;54892;47.488;19.026;2022-10-03T04:52:46;100046.41;;;12.32;78.98
68107;BME280;54892;47.488;19.026;2022-10-03T04:55:55;100039.53;;;12.37;78.42
68107;BME280;54892;47.488;19.026;2022-10-03T04:59:11;100048.56;;;12.41;78.25
68107;BME280;54892;47.488;19.026;2022-10-03T05:02:30;100054.91;;;12.45;78.11
68107;BME280;54892;47.488;19.026;2022-10-03T05:05:44;100058.63;;;12.28;78.41
68107;BME280;54892;47.488;19.026;2022-10-03T05:08:55;100068.66;;;12.21;78.72
68107;BME280;54892;47.488;19.026;2022-10-03T05:12:06;100074.75;;;12.22;79.13
68107;BME280;54892;47.488;19.026;2022-10-03T05:15:19;100074.22;;;12.35;78.51
68107;BME280;54892;47.488;19.026;2022-10-03T05:18:29;100078.97;;;12.43;77.53
68107;BME280;54892;47.488;19.026;2022-10-03T05:21:41;100071.31;;;12.42;77.21
68107;BME280;54892;47.488;19.026;2022-10-03T05:24:56;100080.59;;;12.49;77.20
68107;BME280;54892;47.488;19.026;2022-10-03T05:28:11;100081.09;;;12.57;76.38
68107;BME280;54892;47.488;19.026;2022-10-03T05:31:28;100093.56;;;12.41;77.04
68107;BME280;54892;47.488;19.026;2022-10-03T05:34:47;100086.12;;;12.32;77.39
68107;BME280;54892;47.488;19.026;2022-10-03T05:38:12;100089.59;;;12.48;76.76
68107;BME280;54892;47.488;19.026;2022-10-03T05:41:26;100099.91;;;12.45;76.80
68107;BME280;54892;47.488;19.026;2022-10-03T05:44:39;100096.19;;;12.51;77.15
68107;BME280;54892;47.488;19.026;2022-10-03T05:47:49;100103.62;;;12.59;76.45
68107;BME280;54892;47.488;19.026;2022-10-03T05:51:14;100095.94;;;12.53;75.74
68107;BME280;54892;47.488;19.026;2022-10-03T06:02:27;100104.66;;;12.58;74.90
68107;BME280;54892;47.488;19.026;2022-10-03T06:05:51;100108.09;;;12.69;74.24
68107;BME280;54892;47.488;19.026;2022-10-03T06:09:26;100114.44;;;12.78;73.71
68107;BME280;54892;47.488;19.026;2022-10-03T06:12:37;100122.37;;;12.89;73.05
68107;BME280;54892;47.488;19.026;2022-10-03T06:15:49;100119.19;;;12.87;72.62
68107;BME280;54892;47.488;19.026;2022-10-03T06:19:14;100126.38;;;12.91;72.03
68107;BME280;54892;47.488;19.026;2022-10-03T06:22:59;100124.47;;;13.02;71.85
68107;BME280;54892;47.488;19.026;2022-10-03T06:26:52;100151.75;;;13.13;71.92
68107;BME280;54892;47.488;19.026;2022-10-03T06:30:11;100137.41;;;13.30;71.01
68107;BME280;54892;47.488;19.026;2022-10-03T06:33:52;100149.28;;;13.58;69.59
68107;BME280;54892;47.488;19.026;2022-10-03T06:37:20;100156.84;;;13.85;68.73
68107;BME280;54892;47.488;19.026;2022-10-03T06:40:50;100164.00;;;13.85;68.15
68107;BME280;54892;47.488;19.026;2022-10-03T06:44:07;100153.22;;;13.61;68.75
68107;BME280;54892;47.488;19.026;2022-10-03T06:47:26;100162.66;;;13.93;67.48
68107;BME280;54892;47.488;19.026;2022-10-03T06:50:43;100172.28;;;13.73;68.02
68107;BME280;54892;47.488;19.026;2022-10-03T06:54:10;100169.31;;;13.85;67.81
68107;BME280;54892;47.488;19.026;2022-10-03T06:57:30;100171.91;;;14.45;65.70
68107;BME280;54892;47.488;19.026;2022-10-03T07:00:53;100161.44;;;15.18;62.58
68107;BME280;54892;47.488;19.026;2022-10-03T07:04:20;100166.66;;;16.02;59.77
68107;BME280;54892;47.488;19.026;2022-10-03T07:07:56;100163.91;;;16.92;58.16
68107;BME280;54892;47.488;19.026;2022-10-03T07:11:28;100171.19;;;17.19;54.53
68107;BME280;54892;47.488;19.026;2022-10-03T07:14:59;100168.03;;;16.84;56.04
68107;BME280;54892;47.488;19.026;2022-10-03T07:22:21;100173.16;;;17.98;51.70
68107;BME280;54892;47.488;19.026;2022-10-03T07:25:48;100180.94;;;16.96;55.71
68107;BME280;54892;47.488;19.026;2022-10-03T07:29:07;100176.53;;;16.86;54.39
68107;BME280;54892;47.488;19.026;2022-10-03T07:32:24;100177.91;;;15.93;57.40
68107;BME280;54892;47.488;19.026;2022-10-03T07:35:41;100186.19;;;16.30;56.33
68107;BME280;54892;47.488;19.026;2022-10-03T07:39:12;100177.41;;;15.91;58.22
68107;BME280;54892;47.488;19.026;2022-10-03T07:42:39;100188.59;;;16.32;57.00
68107;BME280;54892;47.488;19.026;2022-10-03T07:46:11;100196.00;;;16.54;56.21
68107;BME280;54892;47.488;19.026;2022-10-03T07:49:44;100194.56;;;16.23;57.36
68107;BME280;54892;47.488;19.026;2022-10-03T07:53:09;100189.56;;;15.54;58.74
68107;BME280;54892;47.488;19.026;2022-10-03T07:56:31;100203.59;;;15.06;60.18
68107;BME280;54892;47.488;19.026;2022-10-03T07:59:54;100199.78;;;15.17;60.46
68107;BME280;54892;47.488;19.026;2022-10-03T08:03:33;100214.59;;;15.23;60.69
68107;BME280;54892;47.488;19.026;2022-10-03T08:06:49;100211.97;;;15.18;60.87
68107;BME280;54892;47.488;19.026;2022-10-03T08:10:10;100199.19;;;15.20;60.02
68107;BME280;54892;47.488;19.026;2022-10-03T08:13:30;100191.78;;;15.42;59.72
68107;BME280;54892;47.488;19.026;2022-10-03T08:16:51;100213.47;;;15.30;59.04
68107;BME280;54892;47.488;19.026;2022-10-03T08:20:10;100202.66;;;15.21;59.26
68107;BME280;54892;47.488;19.026;2022-10-03T08:27:06;100196.63;;;15.40;59.93
68107;BME280;54892;47.488;19.026;2022-10-03T08:30:20;100200.56;;;15.18;59.76
68107;BME280;54892;47.488;19.026;2022-10-03T08:33:45;100185.84;;;15.26;59.56
68107;BME280;54892;47.488;19.026;2022-10-03T08:37:27;100204.09;;;15.37;59.34
68107;BME280;54892;47.488;19.026;2022-10-03T08:40:59;100180.66;;;15.40;58.25
68107;BME280;54892;47.488;19.026;2022-10-03T08:48:33;100217.88;;;15.15;58.49
68107;BME280;54892;47.488;19.026;2022-10-03T08:51:55;100205.97;;;15.07;58.70
68107;BME280;54892;47.488;19.026;2022-10-03T08:55:25;100204.78;;;14.89;59.22
68107;BME280;54892;47.488;19.026;2022-10-03T08:59:04;100197.25;;;15.02;58.84
68107;BME280;54892;47.488;19.026;2022-10-03T09:06:21;100206.69;;;15.43;58.63
68107;BME280;54892;47.488;19.026;2022-10-03T09:09:58;100207.88;;;15.31;57.84
68107;BME280;54892;47.488;19.026;2022-10-03T09:17:21;100195.31;;;15.86;56.51
68107;BME280;54892;47.488;19.026;2022-10-03T09:21:02;100195.31;;;15.86;56.51
68107;BME280;54892;47.488;19.026;2022-10-03T09:32:31;100200.53;;;15.72;56.06
68107;BME280;54892;47.488;19.026;2022-10-03T09:35:57;100190.50;;;15.88;56.35
68107;BME280;54892;47.488;19.026;2022-10-03T09:39:27;100208.66;;;15.80;55.21
68107;BME280;54892;47.488;19.026;2022-10-03T09:43:01;100193.09;;;15.68;55.99
68107;BME280;54892;47.488;19.026;2022-10-03T09:46:32;100197.03;;;15.52;55.32
68107;BME280;54892;47.488;19.026;2022-10-03T09:49:54;100204.66;;;15.59;55.31
68107;BME280;54892;47.488;19.026;2022-10-03T09:53:25;100209.84;;;15.45;56.28
68107;BME280;54892;47.488;19.026;2022-10-03T10:00:14;100212.06;;;15.62;55.37
68107;BME280;54892;47.488;19.026;2022-10-03T10:03:49;100204.25;;;15.71;55.33
68107;BME280;54892;47.488;19.026;2022-10-03T10:07:28;100200.91;;;15.84;54.52
68107;BME280;54892;47.488;19.026;2022-10-03T10:11:03;100222.31;;;15.74;54.40
68107;BME280;54892;47.488;19.026;2022-10-03T10:14:26;100203.66;;;15.74;55.40
68107;BME280;54892;47.488;19.026;2022-10-03T10:21:35;100195.06;;;15.82;55.97
68107;BME280;54892;47.488;19.026;2022-10-03T10:28:34;100189.03;;;16.01;54.92
68107;BME280;54892;47.488;19.026;2022-10-03T10:32:14;100195.34;;;16.05;54.71
68107;BME280;54892;47.488;19.026;2022-10-03T10:35:45;100190.09;;;16.00;55.18
68107;BME280;54892;47.488;19.026;2022-10-03T10:39:14;100188.69;;;15.83;54.35
68107;BME280;54892;47.488;19.026;2022-10-03T10:42:58;100180.06;;;15.91;53.86
68107;BME280;54892;47.488;19.026;2022-10-03T10:50:26;100175.81;;;15.90;54.56
68107;BME280;54892;47.488;19.026;2022-10-03T10:57:23;100186.44;;;15.47;55.33
68107;BME280;54892;47.488;19.026;2022-10-03T11:00:40;100177.72;;;15.65;55.51
68107;BME280;54892;47.488;19.026;2022-10-03T11:11:57;100199.00;;;15.41;56.39
68107;BME280;54892;47.488;19.026;2022-10-03T11:15:37;100192.72;;;15.56;56.68
68107;BME280;54892;47.488;19.026;2022-10-03T11:19:21;100190.88;;;15.76;56.46
68107;BME280;54892;47.488;19.026;2022-10-03T11:26:41;100183.59;;;15.62;56.50
68107;BME280;54892;47.488;19.026;2022-10-03T11:30:17;100185.41;;;15.67;56.04
68107;BME280;54892;47.488;19.026;2022-10-03T11:33:46;100195.03;;;15.63;57.19
68107;BME280;54892;47.488;19.026;2022-10-03T11:37:09;100192.25;;;15.73;57.23
68107;BME280;54892;47.488;19.026;2022-10-03T11:40:31;100196.28;;;15.71;56.44
68107;BME280;54892;47.488;19.026;2022-10-03T11:43:48;100195.31;;;15.61;57.21
68107;BME280;54892;47.488;19.026;2022-10-03T11:47:26;100190.25;;;15.84;56.98
68107;BME280;54892;47.488;19.026;2022-10-03T11:50:53;100194.91;;;15.73;56.16
68107;BME280;54892;47.488;19.026;2022-10-03T11:54:00;100196.72;;;15.78;56.17
68107;BME280;54892;47.488;19.026;2022-10-03T11:57:29;100195.94;;;15.53;55.89
68107;BME280;54892;47.488;19.026;2022-10-03T12:00:34;100191.62;;;15.57;56.00
68107;BME280;54892;47.488;19.026;2022-10-03T12:03:45;100183.34;;;15.83;55.82
68107;BME280;54892;47.488;19.026;2022-10-03T12:07:00;100186.25;;;15.62;56.30
68107;BME280;54892;47.488;19.026;2022-10-03T12:10:32;100207.94;;;15.50;57.06
68107;BME280;54892;47.488;19.026;2022-10-03T12:13:41;100189.22;;;15.36;58.48
68107;BME280;54892;47.488;19.026;2022-10-03T12:17:03;100204.13;;;15.32;58.88
68107;BME280;54892;47.488;19.026;2022-10-03T12:20:16;100206.97;;;15.41;57.48
68107;BME280;54892;47.488;19.026;2022-10-03T12:23:37;100193.78;;;15.31;56.62
68107;BME280;54892;47.488;19.026;2022-10-03T12:26:52;100213.59;;;15.44;56.81
68107;BME280;54892;47.488;19.026;2022-10-03T12:29:58;100182.87;;;15.57;56.53
68107;BME280;54892;47.488;19.026;2022-10-03T12:33:14;100193.78;;;15.79;55.95
68107;BME280;54892;47.488;19.026;2022-10-03T12:36:26;100199.31;;;15.83;55.01
68107;BME280;54892;47.488;19.026;2022-10-03T12:39:37;100192.41;;;15.82;55.55
68107;BME280;54892;47.488;19.026;2022-10-03T12:42:47;100210.81;;;16.03;54.94
68107;BME280;54892;47.488;19.026;2022-10-03T12:45:57;100191.03;;;16.09;55.22
68107;BME280;54892;47.488;19.026;2022-10-03T12:49:04;100199.44;;;15.97;57.58
68107;BME280;54892;47.488;19.026;2022-10-03T12:52:16;100202.91;;;16.17;55.44
68107;BME280;54892;47.488;19.026;2022-10-03T12:55:26;100194.00;;;16.07;54.36
68107;BME280;54892;47.488;19.026;2022-10-03T12:58:38;100189.59;;;16.17;54.33
68107;BME280;54892;47.488;19.026;2022-10-03T13:02:00;100175.34;;;16.07;53.26
68107;BME280;54892;47.488;19.026;2022-10-03T13:05:43;100173.91;;;15.96;53.56
68107;BME280;54892;47.488;19.026;2022-10-03T13:09:03;100185.47;;;15.86;53.79
68107;BME280;54892;47.488;19.026;2022-10-03T13:12:17;100212.00;;;15.91;55.57
68107;BME280;54892;47.488;19.026;2022-10-03T13:19:02;100234.59;;;15.45;61.74
68107;BME280;54892;47.488;19.026;2022-10-03T13:22:25;100229.47;;;15.25;63.70
68107;BME280;54892;47.488;19.026;2022-10-03T13:25:34;100226.41;;;15.12;64.57
68107;BME280;54892;47.488;19.026;2022-10-03T13:29:05;100221.50;;;15.25;64.54
68107;BME280;54892;47.488;19.026;2022-10-03T13:32:24;100220.59;;;15.34;64.15
68107;BME280;54892;47.488;19.026;2022-10-03T13:35:35;100224.00;;;15.40;63.43
68107;BME280;54892;47.488;19.026;2022-10-03T13:39:06;100213.59;;;15.68;61.82
68107;BME280;54892;47.488;19.026;2022-10-03T13:42:17;100211.28;;;15.61;61.81
68107;BME280;54892;47.488;19.026;2022-10-03T13:45:24;100209.06;;;15.68;61.56
68107;BME280;54892;47.488;19.026;2022-10-03T13:48:29;100204.13;;;15.81;60.96
68107;BME280;54892;47.488;19.026;2022-10-03T13:51:40;100207.31;;;15.83;60.47
68107;BME280;54892;47.488;19.026;2022-10-03T13:55:03;100204.13;;;15.86;59.47
68107;BME280;54892;47.488;19.026;2022-10-03T13:58:20;100196.56;;;15.45;61.20
68107;BME280;54892;47.488;19.026;2022-10-03T14:01:33;100193.44;;;15.37;61.18
68107;BME280;54892;47.488;19.026;2022-10-03T14:04:51;100187.44;;;15.51;61.61
68107;BME280;54892;47.488;19.026;2022-10-03T14:08:07;100183.00;;;15.46;61.51
68107;BME280;54892;47.488;19.026;2022-10-03T14:11:21;100196.66;;;15.34;61.59
68107;BME280;54892;47.488;19.026;2022-10-03T14:14:37;100192.13;;;15.35;61.40
68107;BME280;54892;47.488;19.026;2022-10-03T14:17:52;100186.53;;;15.36;61.86
68107;BME280;54892;47.488;19.026;2022-10-03T14:21:17;100193.91;;;15.45;61.69
68107;BME280;54892;47.488;19.026;2022-10-03T14:24:35;100200.56;;;15.42;61.16
68107;BME280;54892;47.488;19.026;2022-10-03T14:27:47;100195.12;;;15.28;60.59
68107;BME280;54892;47.488;19.026;2022-10-03T14:30:59;100195.09;;;15.33;60.17
68107;BME280;54892;47.488;19.026;2022-10-03T14:34:18;100192.09;;;15.40;60.03
68107;BME280;54892;47.488;19.026;2022-10-03T14:37:29;100197.63;;;15.44;60.14
68107;BME280;54892;47.488;19.026;2022-10-03T14:40:38;100198.59;;;15.29;61.14
68107;BME280;54892;47.488;19.026;2022-10-03T14:43:44;100191.16;;;15.26;60.91
68107;BME280;54892;47.488;19.026;2022-10-03T14:46:55;100199.94;;;15.26;60.44
68107;BME280;54892;47.488;19.026;2022-10-03T14:50:01;100196.94;;;15.09;59.58
68107;BME280;54892;47.488;19.026;2022-10-03T14:53:06;100184.72;;;15.07;59.86
68107;BME280;54892;47.488;19.026;2022-10-03T14:56:12;100188.16;;;15.08;58.27
68107;BME280;54892;47.488;19.026;2022-10-03T14:59:19;100185.72;;;15.12;56.36
68107;BME280;54892;47.488;19.026;2022-10-03T15:02:28;100192.44;;;15.33;55.85
68107;BME280;54892;47.488;19.026;2022-10-03T15:05:34;100199.87;;;15.31;56.27
68107;BME280;54892;47.488;19.026;2022-10-03T15:08:41;100193.25;;;15.04;55.20
68107;BME280;54892;47.488;19.026;2022-10-03T15:11:47;100202.31;;;15.28;55.72
68107;BME280;54892;47.488;19.026;2022-10-03T15:14:57;100200.88;;;15.11;55.87
68107;BME280;54892;47.488;19.026;2022-10-03T15:18:03;100205.53;;;15.25;56.10
68107;BME280;54892;47.488;19.026;2022-10-03T15:21:13;100209.00;;;15.25;56.74
68107;BME280;54892;47.488;19.026;2022-10-03T15:24:20;100203.91;;;15.29;55.47
68107;BME280;54892;47.488;19.026;2022-10-03T15:27:26;100210.06;;;15.24;56.01
68107;BME280;54892;47.488;19.026;2022-10-03T15:30:33;100209.50;;;15.27;56.59
68107;BME280;54892;47.488;19.026;2022-10-03T15:33:38;100210.84;;;15.25;56.22
68107;BME280;54892;47.488;19.026;2022-10-03T15:36:47;100211.75;;;15.15;55.76
68107;BME280;54892;47.488;19.026;2022-10-03T15:39:51;100207.56;;;15.09;56.45
68107;BME280;54892;47.488;19.026;2022-10-03T15:43:02;100198.00;;;15.07;56.14
68107;BME280;54892;47.488;19.026;2022-10-03T15:46:25;100203.69;;;14.96;56.66
68107;BME280;54892;47.488;19.026;2022-10-03T15:49:32;100196.87;;;14.84;56.82
68107;BME280;54892;47.488;19.026;2022-10-03T15:52:42;100194.44;;;14.88;56.83
68107;BME280;54892;47.488;19.026;2022-10-03T15:55:48;100201.59;;;14.87;57.14
68107;BME280;54892;47.488;19.026;2022-10-03T15:58:53;100202.94;;;14.90;56.17
68107;BME280;54892;47.488;19.026;2022-10-03T16:02:04;100208.12;;;14.71;56.68
68107;BME280;54892;47.488;19.026;2022-10-03T16:05:15;100205.19;;;14.72;56.55
68107;BME280;54892;47.488;19.026;2022-10-03T16:08:27;100215.62;;;14.58;57.23
68107;BME280;54892;47.488;19.026;2022-10-03T16:11:37;100204.69;;;14.70;56.86
68107;BME280;54892;47.488;19.026;2022-10-03T16:14:47;100207.75;;;14.43;57.11
68107;BME280;54892;47.488;19.026;2022-10-03T16:17:55;100209.31;;;14.49;57.07
68107;BME280;54892;47.488;19.026;2022-10-03T16:21:00;100211.66;;;14.56;56.91
68107;BME280;54892;47.488;19.026;2022-10-03T16:24:18;100210.09;;;14.50;57.31
68107;BME280;54892;47.488;19.026;2022-10-03T16:27:25;100215.59;;;14.64;57.37
68107;BME280;54892;47.488;19.026;2022-10-03T16:30:31;100214.38;;;14.45;57.38
68107;BME280;54892;47.488;19.026;2022-10-03T16:33:40;100209.63;;;14.42;57.56
68107;BME280;54892;47.488;19.026;2022-10-03T16:36:48;100205.38;;;14.41;57.45
68107;BME280;54892;47.488;19.026;2022-10-03T16:39:56;100201.72;;;14.32;57.37
68107;BME280;54892;47.488;19.026;2022-10-03T16:43:02;100217.81;;;14.46;57.39
68107;BME280;54892;47.488;19.026;2022-10-03T16:46:14;100206.94;;;14.48;57.39
68107;BME280;54892;47.488;19.026;2022-10-03T16:49:32;100215.47;;;14.44;58.22
68107;BME280;54892;47.488;19.026;2022-10-03T16:52:56;100216.31;;;14.29;58.52
68107;BME280;54892;47.488;19.026;2022-10-03T16:56:05;100221.94;;;14.28;59.19
68107;BME280;54892;47.488;19.026;2022-10-03T16:59:10;100224.84;;;14.26;58.52
68107;BME280;54892;47.488;19.026;2022-10-03T17:02:18;100224.13;;;14.15;58.70
68107;BME280;54892;47.488;19.026;2022-10-03T17:05:22;100226.19;;;14.24;58.79
68107;BME280;54892;47.488;19.026;2022-10-03T17:08:30;100229.56;;;14.40;58.90
68107;BME280;54892;47.488;19.026;2022-10-03T17:11:45;100228.06;;;14.18;59.33
68107;BME280;54892;47.488;19.026;2022-10-03T17:14:52;100229.97;;;14.07;59.64
68107;BME280;54892;47.488;19.026;2022-10-03T17:18:04;100233.63;;;14.22;60.07
68107;BME280;54892;47.488;19.026;2022-10-03T17:21:21;100229.44;;;14.10;59.87
68107;BME280;54892;47.488;19.026;2022-10-03T17:24:42;100230.44;;;14.20;59.46
68107;BME280;54892;47.488;19.026;2022-10-03T17:27:49;100234.47;;;14.12;60.16
68107;BME280;54892;47.488;19.026;2022-10-03T17:30:56;100223.91;;;14.01;59.54
68107;BME280;54892;47.488;19.026;2022-10-03T17:34:10;100239.22;;;14.15;59.94
68107;BME280;54892;47.488;19.026;2022-10-03T17:37:27;100230.56;;;13.99;60.04
68107;BME280;54892;47.488;19.026;2022-10-03T17:40:48;100238.75;;;14.03;60.38
68107;BME280;54892;47.488;19.026;2022-10-03T17:44:01;100233.75;;;13.96;59.67
68107;BME280;54892;47.488;19.026;2022-10-03T17:47:11;100237.53;;;13.74;60.57
68107;BME280;54892;47.488;19.026;2022-10-03T17:50:22;100241.75;;;13.80;60.27
68107;BME280;54892;47.488;19.026;2022-10-03T17:53:29;100237.25;;;13.81;60.37
68107;BME280;54892;47.488;19.026;2022-10-03T17:56:34;100242.06;;;13.74;60.62
68107;BME280;54892;47.488;19.026;2022-10-03T17:59:43;100238.81;;;13.92;60.94
68107;BME280;54892;47.488;19.026;2022-10-03T18:02:56;100242.81;;;13.79;61.26
68107;BME280;54892;47.488;19.026;2022-10-03T18:06:23;100236.13;;;13.97;60.73
68107;BME280;54892;47.488;19.026;2022-10-03T18:09:29;100254.75;;;13.82;61.96
68107;BME280;54892;47.488;19.026;2022-10-03T18:12:35;100262.69;;;13.87;61.28
68107;BME280;54892;47.488;19.026;2022-10-03T18:16:15;100257.44;;;13.72;61.86
68107;BME280;54892;47.488;19.026;2022-10-03T18:19:30;100260.09;;;13.66;62.39
68107;BME280;54892;47.488;19.026;2022-10-03T18:22:43;100273.91;;;13.58;62.93
68107;BME280;54892;47.488;19.026;2022-10-03T18:25:53;100268.09;;;13.51;62.55
68107;BME280;54892;47.488;19.026;2022-10-03T18:29:26;100280.56;;;13.50;62.69
68107;BME280;54892;47.488;19.026;2022-10-03T18:32:35;100283.75;;;13.47;63.46
68107;BME280;54892;47.488;19.026;2022-10-03T18:35:42;100284.00;;;13.30;64.21
68107;BME280;54892;47.488;19.026;2022-10-03T18:38:48;100291.44;;;13.44;63.45
68107;BME280;54892;47.488;19.026;2022-10-03T18:41:56;100289.56;;;13.29;64.23